sensor_id;sensor_type;location;lat;lon;timestamp;P1;durP1;ratioP1;P2;durP2;ratioP2
59336;SDS011;45115;52.002;4.686;2022-07-26T00:00:32;13.23;;;3.55;;
59336;SDS011;45115;52.002;4.686;2022-07-26T00:02:59;13.32;;;3.72;;
59336;SDS011;45115;52.002;4.686;2022-07-26T00:05:27;12.68;;;4.30;;
59336;SDS011;45115;52.002;4.686;2022-07-26T00:07:54;13.75;;;3.50;;
59336;SDS011;45115;52.002;4.686;2022-07-26T00:10:35;13.33;;;3.77;;
59336;SDS011;45115;52.002;4.686;2022-07-26T00:13:02;9.10;;;3.25;;
59336;SDS011;45115;52.002;4.686;2022-07-26T00:15:29;10.55;;;3.75;;
59336;SDS011;45115;52.002;4.686;2022-07-26T00:17:55;12.43;;;3.38;;
59336;SDS011;45115;52.002;4.686;2022-07-26T00:20:22;13.15;;;3.35;;
59336;SDS011;45115;52.002;4.686;2022-07-26T00:22:50;11.23;;;3.40;;
59336;SDS011;45115;52.002;4.686;2022-07-26T00:25:17;11.20;;;3.35;;
59336;SDS011;45115;52.002;4.686;2022-07-26T00:27:43;9.63;;;3.00;;
59336;SDS011;45115;52.002;4.686;2022-07-26T00:30:10;11.25;;;3.70;;
59336;SDS011;45115;52.002;4.686;2022-07-26T00:32:37;9.27;;;3.30;;
59336;SDS011;45115;52.002;4.686;2022-07-26T00:35:04;10.75;;;3.42;;
59336;SDS011;45115;52.002;4.686;2022-07-26T00:37:31;9.73;;;3.30;;
59336;SDS011;45115;52.002;4.686;2022-07-26T00:39:59;10.45;;;3.75;;
59336;SDS011;45115;52.002;4.686;2022-07-26T00:42:26;12.40;;;3.53;;
59336;SDS011;45115;52.002;4.686;2022-07-26T00:44:52;11.45;;;3.40;;
59336;SDS011;45115;52.002;4.686;2022-07-26T00:47:19;10.25;;;3.20;;
59336;SDS011;45115;52.002;4.686;2022-07-26T00:49:46;8.70;;;2.92;;
59336;SDS011;45115;52.002;4.686;2022-07-26T00:52:12;10.75;;;3.28;;
59336;SDS011;45115;52.002;4.686;2022-07-26T00:54:39;7.78;;;3.15;;
59336;SDS011;45115;52.002;4.686;2022-07-26T00:57:09;8.35;;;2.65;;
59336;SDS011;45115;52.002;4.686;2022-07-26T00:59:35;4.60;;;2.60;;
59336;SDS011;45115;52.002;4.686;2022-07-26T01:02:03;4.75;;;2.80;;
59336;SDS011;45115;52.002;4.686;2022-07-26T01:04:31;8.82;;;3.47;;
59336;SDS011;45115;52.002;4.686;2022-07-26T01:06:58;7.30;;;3.03;;
59336;SDS011;45115;52.002;4.686;2022-07-26T01:09:25;5.00;;;2.90;;
59336;SDS011;45115;52.002;4.686;2022-07-26T01:11:52;6.47;;;2.88;;
59336;SDS011;45115;52.002;4.686;2022-07-26T01:14:20;7.60;;;2.90;;
59336;SDS011;45115;52.002;4.686;2022-07-26T01:16:47;7.95;;;3.50;;
59336;SDS011;45115;52.002;4.686;2022-07-26T01:19:14;7.88;;;3.03;;
59336;SDS011;45115;52.002;4.686;2022-07-26T01:21:42;6.13;;;2.92;;
59336;SDS011;45115;52.002;4.686;2022-07-26T01:24:10;12.00;;;3.95;;
59336;SDS011;45115;52.002;4.686;2022-07-26T01:26:37;5.90;;;3.38;;
59336;SDS011;45115;52.002;4.686;2022-07-26T01:29:03;5.72;;;3.00;;
59336;SDS011;45115;52.002;4.686;2022-07-26T01:31:30;9.02;;;3.08;;
59336;SDS011;45115;52.002;4.686;2022-07-26T01:33:57;5.35;;;2.67;;
59336;SDS011;45115;52.002;4.686;2022-07-26T01:36:24;7.72;;;3.25;;
59336;SDS011;45115;52.002;4.686;2022-07-26T01:38:56;5.55;;;2.60;;
59336;SDS011;45115;52.002;4.686;2022-07-26T01:41:23;8.93;;;3.08;;
59336;SDS011;45115;52.002;4.686;2022-07-26T01:43:50;5.47;;;3.20;;
59336;SDS011;45115;52.002;4.686;2022-07-26T01:46:16;7.13;;;3.03;;
59336;SDS011;45115;52.002;4.686;2022-07-26T01:48:43;6.60;;;3.22;;
59336;SDS011;45115;52.002;4.686;2022-07-26T01:51:09;7.82;;;3.17;;
59336;SDS011;45115;52.002;4.686;2022-07-26T01:53:36;8.30;;;2.88;;
59336;SDS011;45115;52.002;4.686;2022-07-26T01:56:04;8.05;;;3.17;;
59336;SDS011;45115;52.002;4.686;2022-07-26T01:58:31;9.52;;;3.25;;
59336;SDS011;45115;52.002;4.686;2022-07-26T02:00:58;7.30;;;3.00;;
59336;SDS011;45115;52.002;4.686;2022-07-26T02:03:25;8.93;;;2.55;;
59336;SDS011;45115;52.002;4.686;2022-07-26T02:05:52;7.18;;;3.22;;
59336;SDS011;45115;52.002;4.686;2022-07-26T02:08:19;8.50;;;2.90;;
59336;SDS011;45115;52.002;4.686;2022-07-26T02:10:45;10.90;;;2.92;;
59336;SDS011;45115;52.002;4.686;2022-07-26T02:13:29;7.68;;;3.15;;
59336;SDS011;45115;52.002;4.686;2022-07-26T02:15:57;7.30;;;2.85;;
59336;SDS011;45115;52.002;4.686;2022-07-26T02:18:24;7.95;;;3.13;;
59336;SDS011;45115;52.002;4.686;2022-07-26T02:20:52;6.13;;;2.67;;
59336;SDS011;45115;52.002;4.686;2022-07-26T02:23:19;8.10;;;4.07;;
59336;SDS011;45115;52.002;4.686;2022-07-26T02:25:46;6.97;;;3.22;;
59336;SDS011;45115;52.002;4.686;2022-07-26T02:28:13;7.18;;;3.10;;
59336;SDS011;45115;52.002;4.686;2022-07-26T02:30:42;7.07;;;3.15;;
59336;SDS011;45115;52.002;4.686;2022-07-26T02:33:10;8.23;;;3.13;;
59336;SDS011;45115;52.002;4.686;2022-07-26T02:35:37;8.27;;;3.13;;
59336;SDS011;45115;52.002;4.686;2022-07-26T02:38:04;6.45;;;3.28;;
59336;SDS011;45115;52.002;4.686;2022-07-26T02:40:33;6.35;;;3.17;;
59336;SDS011;45115;52.002;4.686;2022-07-26T02:43:00;7.30;;;3.10;;
59336;SDS011;45115;52.002;4.686;2022-07-26T02:45:27;6.53;;;3.30;;
59336;SDS011;45115;52.002;4.686;2022-07-26T02:47:59;9.40;;;3.40;;
59336;SDS011;45115;52.002;4.686;2022-07-26T02:50:26;11.40;;;3.67;;
59336;SDS011;45115;52.002;4.686;2022-07-26T02:52:54;7.95;;;3.53;;
59336;SDS011;45115;52.002;4.686;2022-07-26T02:55:22;12.60;;;3.30;;
59336;SDS011;45115;52.002;4.686;2022-07-26T02:57:49;10.38;;;3.70;;
59336;SDS011;45115;52.002;4.686;2022-07-26T03:00:17;6.70;;;3.40;;
59336;SDS011;45115;52.002;4.686;2022-07-26T03:02:45;10.95;;;4.35;;
59336;SDS011;45115;52.002;4.686;2022-07-26T03:05:14;7.97;;;3.25;;
59336;SDS011;45115;52.002;4.686;2022-07-26T03:07:41;8.45;;;3.03;;
59336;SDS011;45115;52.002;4.686;2022-07-26T03:10:08;8.27;;;3.10;;
59336;SDS011;45115;52.002;4.686;2022-07-26T03:12:35;5.80;;;2.88;;
59336;SDS011;45115;52.002;4.686;2022-07-26T03:15:01;7.40;;;2.92;;
59336;SDS011;45115;52.002;4.686;2022-07-26T03:17:28;6.50;;;3.08;;
59336;SDS011;45115;52.002;4.686;2022-07-26T03:19:55;6.90;;;3.10;;
59336;SDS011;45115;52.002;4.686;2022-07-26T03:22:23;11.13;;;3.40;;
59336;SDS011;45115;52.002;4.686;2022-07-26T03:24:49;5.90;;;2.92;;
59336;SDS011;45115;52.002;4.686;2022-07-26T03:27:16;9.55;;;3.33;;
59336;SDS011;45115;52.002;4.686;2022-07-26T03:29:43;6.68;;;2.90;;
59336;SDS011;45115;52.002;4.686;2022-07-26T03:32:09;5.95;;;2.75;;
59336;SDS011;45115;52.002;4.686;2022-07-26T03:34:36;6.38;;;3.15;;
59336;SDS011;45115;52.002;4.686;2022-07-26T03:37:03;13.20;;;3.05;;
59336;SDS011;45115;52.002;4.686;2022-07-26T03:39:31;5.57;;;2.85;;
59336;SDS011;45115;52.002;4.686;2022-07-26T03:41:57;10.10;;;3.35;;
59336;SDS011;45115;52.002;4.686;2022-07-26T03:44:24;6.00;;;2.85;;
59336;SDS011;45115;52.002;4.686;2022-07-26T03:46:50;6.38;;;2.40;;
59336;SDS011;45115;52.002;4.686;2022-07-26T03:49:17;6.13;;;2.95;;
59336;SDS011;45115;52.002;4.686;2022-07-26T03:51:44;4.97;;;2.83;;
59336;SDS011;45115;52.002;4.686;2022-07-26T03:54:10;8.95;;;3.22;;
59336;SDS011;45115;52.002;4.686;2022-07-26T03:56:38;5.13;;;2.70;;
59336;SDS011;45115;52.002;4.686;2022-07-26T03:59:05;5.30;;;2.78;;
59336;SDS011;45115;52.002;4.686;2022-07-26T04:01:34;8.30;;;3.45;;
59336;SDS011;45115;52.002;4.686;2022-07-26T04:04:05;6.63;;;3.28;;
59336;SDS011;45115;52.002;4.686;2022-07-26T04:06:32;6.68;;;3.35;;
59336;SDS011;45115;52.002;4.686;2022-07-26T04:08:59;5.97;;;2.88;;
59336;SDS011;45115;52.002;4.686;2022-07-26T04:11:26;5.57;;;3.10;;
59336;SDS011;45115;52.002;4.686;2022-07-26T04:13:54;3.80;;;2.72;;
59336;SDS011;45115;52.002;4.686;2022-07-26T04:16:21;9.55;;;3.15;;
59336;SDS011;45115;52.002;4.686;2022-07-26T04:18:47;6.13;;;2.97;;
59336;SDS011;45115;52.002;4.686;2022-07-26T04:21:14;9.75;;;3.13;;
59336;SDS011;45115;52.002;4.686;2022-07-26T04:23:41;9.70;;;3.70;;
59336;SDS011;45115;52.002;4.686;2022-07-26T04:26:08;8.70;;;3.35;;
59336;SDS011;45115;52.002;4.686;2022-07-26T04:28:37;6.43;;;3.38;;
59336;SDS011;45115;52.002;4.686;2022-07-26T04:31:05;5.32;;;3.47;;
59336;SDS011;45115;52.002;4.686;2022-07-26T04:33:32;7.15;;;3.00;;
59336;SDS011;45115;52.002;4.686;2022-07-26T04:35:59;7.30;;;3.15;;
59336;SDS011;45115;52.002;4.686;2022-07-26T04:38:26;5.03;;;3.10;;
59336;SDS011;45115;52.002;4.686;2022-07-26T04:40:52;7.55;;;3.42;;
59336;SDS011;45115;52.002;4.686;2022-07-26T04:43:20;8.85;;;3.65;;
59336;SDS011;45115;52.002;4.686;2022-07-26T04:45:47;8.80;;;3.90;;
59336;SDS011;45115;52.002;4.686;2022-07-26T04:48:15;8.18;;;3.40;;
59336;SDS011;45115;52.002;4.686;2022-07-26T04:50:42;9.15;;;3.47;;
59336;SDS011;45115;52.002;4.686;2022-07-26T04:53:09;7.30;;;3.58;;
59336;SDS011;45115;52.002;4.686;2022-07-26T04:55:36;8.68;;;3.83;;
59336;SDS011;45115;52.002;4.686;2022-07-26T04:58:03;7.63;;;3.45;;
59336;SDS011;45115;52.002;4.686;2022-07-26T05:00:29;7.60;;;3.42;;
59336;SDS011;45115;52.002;4.686;2022-07-26T05:02:57;5.00;;;3.10;;
59336;SDS011;45115;52.002;4.686;2022-07-26T05:05:27;6.32;;;3.20;;
59336;SDS011;45115;52.002;4.686;2022-07-26T05:10:26;8.65;;;3.50;;
59336;SDS011;45115;52.002;4.686;2022-07-26T05:12:54;10.20;;;4.15;;
59336;SDS011;45115;52.002;4.686;2022-07-26T05:15:21;6.45;;;3.70;;
59336;SDS011;45115;52.002;4.686;2022-07-26T05:17:47;8.73;;;4.05;;
59336;SDS011;45115;52.002;4.686;2022-07-26T05:20:14;7.15;;;3.90;;
59336;SDS011;45115;52.002;4.686;2022-07-26T05:22:43;11.25;;;4.65;;
59336;SDS011;45115;52.002;4.686;2022-07-26T05:25:09;5.72;;;3.50;;
59336;SDS011;45115;52.002;4.686;2022-07-26T05:27:36;5.70;;;3.03;;
59336;SDS011;45115;52.002;4.686;2022-07-26T05:30:05;9.82;;;3.25;;
59336;SDS011;45115;52.002;4.686;2022-07-26T05:32:32;10.48;;;2.92;;
59336;SDS011;45115;52.002;4.686;2022-07-26T05:34:58;5.10;;;2.83;;
59336;SDS011;45115;52.002;4.686;2022-07-26T05:37:25;9.20;;;2.85;;
59336;SDS011;45115;52.002;4.686;2022-07-26T05:39:53;5.60;;;2.83;;
59336;SDS011;45115;52.002;4.686;2022-07-26T05:42:20;7.22;;;2.67;;
59336;SDS011;45115;52.002;4.686;2022-07-26T05:44:46;7.18;;;3.00;;
59336;SDS011;45115;52.002;4.686;2022-07-26T05:47:13;8.30;;;2.75;;
59336;SDS011;45115;52.002;4.686;2022-07-26T05:49:40;4.82;;;2.55;;
59336;SDS011;45115;52.002;4.686;2022-07-26T05:52:06;5.57;;;2.40;;
59336;SDS011;45115;52.002;4.686;2022-07-26T05:54:33;5.90;;;2.80;;
59336;SDS011;45115;52.002;4.686;2022-07-26T05:57:02;6.90;;;2.72;;
59336;SDS011;45115;52.002;4.686;2022-07-26T05:59:29;6.72;;;2.78;;
59336;SDS011;45115;52.002;4.686;2022-07-26T06:01:56;7.57;;;2.70;;
59336;SDS011;45115;52.002;4.686;2022-07-26T06:04:23;11.05;;;3.20;;
59336;SDS011;45115;52.002;4.686;2022-07-26T06:06:50;9.05;;;2.65;;
59336;SDS011;45115;52.002;4.686;2022-07-26T06:09:18;7.95;;;2.70;;
59336;SDS011;45115;52.002;4.686;2022-07-26T06:11:45;10.48;;;2.80;;
59336;SDS011;45115;52.002;4.686;2022-07-26T06:14:13;7.53;;;2.42;;
59336;SDS011;45115;52.002;4.686;2022-07-26T06:16:40;8.50;;;2.88;;
59336;SDS011;45115;52.002;4.686;2022-07-26T06:19:06;7.53;;;2.70;;
59336;SDS011;45115;52.002;4.686;2022-07-26T06:21:33;8.82;;;2.38;;
59336;SDS011;45115;52.002;4.686;2022-07-26T06:24:00;5.55;;;2.63;;
59336;SDS011;45115;52.002;4.686;2022-07-26T06:26:26;8.00;;;2.58;;
59336;SDS011;45115;52.002;4.686;2022-07-26T06:28:53;5.10;;;2.25;;
59336;SDS011;45115;52.002;4.686;2022-07-26T06:31:21;7.88;;;2.42;;
59336;SDS011;45115;52.002;4.686;2022-07-26T06:33:48;6.70;;;2.22;;
59336;SDS011;45115;52.002;4.686;2022-07-26T06:36:15;5.38;;;2.22;;
59336;SDS011;45115;52.002;4.686;2022-07-26T06:38:42;6.97;;;3.00;;
59336;SDS011;45115;52.002;4.686;2022-07-26T06:41:08;5.95;;;2.20;;
59336;SDS011;45115;52.002;4.686;2022-07-26T06:43:35;7.60;;;2.33;;
59336;SDS011;45115;52.002;4.686;2022-07-26T06:46:02;6.95;;;2.08;;
59336;SDS011;45115;52.002;4.686;2022-07-26T06:48:30;4.85;;;2.03;;
59336;SDS011;45115;52.002;4.686;2022-07-26T06:50:56;7.72;;;2.55;;
59336;SDS011;45115;52.002;4.686;2022-07-26T06:53:23;5.45;;;2.15;;
59336;SDS011;45115;52.002;4.686;2022-07-26T06:55:49;8.98;;;2.40;;
59336;SDS011;45115;52.002;4.686;2022-07-26T06:58:16;6.15;;;2.30;;
59336;SDS011;45115;52.002;4.686;2022-07-26T07:00:43;6.80;;;2.20;;
59336;SDS011;45115;52.002;4.686;2022-07-26T07:03:09;5.53;;;2.47;;
59336;SDS011;45115;52.002;4.686;2022-07-26T07:05:37;8.48;;;2.33;;
59336;SDS011;45115;52.002;4.686;2022-07-26T07:08:04;10.85;;;2.80;;
59336;SDS011;45115;52.002;4.686;2022-07-26T07:10:31;16.60;;;4.55;;
59336;SDS011;45115;52.002;4.686;2022-07-26T07:12:58;4.25;;;2.05;;
59336;SDS011;45115;52.002;4.686;2022-07-26T07:15:24;5.90;;;2.15;;
59336;SDS011;45115;52.002;4.686;2022-07-26T07:17:51;5.70;;;1.85;;
59336;SDS011;45115;52.002;4.686;2022-07-26T07:20:18;5.93;;;1.95;;
59336;SDS011;45115;52.002;4.686;2022-07-26T07:22:46;3.65;;;1.42;;
59336;SDS011;45115;52.002;4.686;2022-07-26T07:25:12;7.10;;;1.48;;
59336;SDS011;45115;52.002;4.686;2022-07-26T07:27:39;5.63;;;1.35;;
59336;SDS011;45115;52.002;4.686;2022-07-26T07:30:06;7.13;;;1.27;;
59336;SDS011;45115;52.002;4.686;2022-07-26T07:32:35;9.00;;;1.80;;
59336;SDS011;45115;52.002;4.686;2022-07-26T07:35:01;2.78;;;1.40;;
59336;SDS011;45115;52.002;4.686;2022-07-26T07:37:28;3.95;;;1.30;;
59336;SDS011;45115;52.002;4.686;2022-07-26T07:39:56;6.00;;;1.35;;
59336;SDS011;45115;52.002;4.686;2022-07-26T07:42:23;4.50;;;1.55;;
59336;SDS011;45115;52.002;4.686;2022-07-26T07:44:49;4.57;;;1.60;;
59336;SDS011;45115;52.002;4.686;2022-07-26T07:47:16;2.88;;;1.23;;
59336;SDS011;45115;52.002;4.686;2022-07-26T07:49:43;7.18;;;1.60;;
59336;SDS011;45115;52.002;4.686;2022-07-26T07:52:09;2.88;;;1.55;;
59336;SDS011;45115;52.002;4.686;2022-07-26T07:54:36;3.72;;;1.50;;
59336;SDS011;45115;52.002;4.686;2022-07-26T07:57:04;2.20;;;1.20;;
59336;SDS011;45115;52.002;4.686;2022-07-26T07:59:30;6.07;;;2.40;;
59336;SDS011;45115;52.002;4.686;2022-07-26T08:01:57;4.88;;;2.72;;
59336;SDS011;45115;52.002;4.686;2022-07-26T08:04:23;6.22;;;2.88;;
59336;SDS011;45115;52.002;4.686;2022-07-26T08:06:50;6.68;;;2.63;;
59336;SDS011;45115;52.002;4.686;2022-07-26T08:09:17;4.18;;;2.55;;
59336;SDS011;45115;52.002;4.686;2022-07-26T08:11:44;6.13;;;2.92;;
59336;SDS011;45115;52.002;4.686;2022-07-26T08:14:12;4.03;;;2.60;;
59336;SDS011;45115;52.002;4.686;2022-07-26T08:16:39;5.32;;;2.22;;
59336;SDS011;45115;52.002;4.686;2022-07-26T08:19:05;7.32;;;2.72;;
59336;SDS011;45115;52.002;4.686;2022-07-26T08:21:32;4.65;;;2.30;;
59336;SDS011;45115;52.002;4.686;2022-07-26T08:23:59;4.93;;;2.60;;
59336;SDS011;45115;52.002;4.686;2022-07-26T08:26:26;6.18;;;2.70;;
59336;SDS011;45115;52.002;4.686;2022-07-26T08:28:52;4.63;;;2.40;;
59336;SDS011;45115;52.002;4.686;2022-07-26T08:31:20;7.18;;;2.20;;
59336;SDS011;45115;52.002;4.686;2022-07-26T08:33:47;4.15;;;1.75;;
59336;SDS011;45115;52.002;4.686;2022-07-26T08:36:14;6.45;;;2.10;;
59336;SDS011;45115;52.002;4.686;2022-07-26T08:38:41;6.63;;;1.90;;
59336;SDS011;45115;52.002;4.686;2022-07-26T08:41:08;4.28;;;1.63;;
59336;SDS011;45115;52.002;4.686;2022-07-26T08:43:35;3.45;;;1.77;;
59336;SDS011;45115;52.002;4.686;2022-07-26T08:46:01;4.32;;;1.33;;
59336;SDS011;45115;52.002;4.686;2022-07-26T08:48:29;4.82;;;1.40;;
59336;SDS011;45115;52.002;4.686;2022-07-26T08:50:56;2.97;;;1.58;;
59336;SDS011;45115;52.002;4.686;2022-07-26T08:53:25;3.20;;;1.02;;
59336;SDS011;45115;52.002;4.686;2022-07-26T08:55:55;1.70;;;0.80;;
59336;SDS011;45115;52.002;4.686;2022-07-26T08:58:22;3.10;;;1.00;;
59336;SDS011;45115;52.002;4.686;2022-07-26T09:00:52;2.08;;;0.88;;
59336;SDS011;45115;52.002;4.686;2022-07-26T09:03:29;1.83;;;0.90;;
59336;SDS011;45115;52.002;4.686;2022-07-26T09:06:09;2.28;;;0.90;;
59336;SDS011;45115;52.002;4.686;2022-07-26T09:08:36;4.07;;;1.20;;
59336;SDS011;45115;52.002;4.686;2022-07-26T09:11:11;4.63;;;1.00;;
59336;SDS011;45115;52.002;4.686;2022-07-26T09:13:51;3.85;;;1.42;;
59336;SDS011;45115;52.002;4.686;2022-07-26T09:16:19;2.20;;;1.15;;
59336;SDS011;45115;52.002;4.686;2022-07-26T09:18:47;2.67;;;1.42;;
59336;SDS011;45115;52.002;4.686;2022-07-26T09:21:24;3.35;;;1.25;;
59336;SDS011;45115;52.002;4.686;2022-07-26T09:23:52;2.78;;;0.95;;
59336;SDS011;45115;52.002;4.686;2022-07-26T09:26:19;4.55;;;1.38;;
59336;SDS011;45115;52.002;4.686;2022-07-26T09:28:47;3.08;;;1.10;;
59336;SDS011;45115;52.002;4.686;2022-07-26T09:33:54;3.60;;;1.40;;
59336;SDS011;45115;52.002;4.686;2022-07-26T09:36:23;3.08;;;1.05;;
59336;SDS011;45115;52.002;4.686;2022-07-26T09:38:50;4.75;;;1.38;;
59336;SDS011;45115;52.002;4.686;2022-07-26T09:41:18;2.55;;;1.13;;
59336;SDS011;45115;52.002;4.686;2022-07-26T09:43:45;2.53;;;1.45;;
59336;SDS011;45115;52.002;4.686;2022-07-26T09:46:12;2.95;;;1.40;;
59336;SDS011;45115;52.002;4.686;2022-07-26T09:48:39;4.18;;;1.17;;
59336;SDS011;45115;52.002;4.686;2022-07-26T09:51:07;4.07;;;1.65;;
59336;SDS011;45115;52.002;4.686;2022-07-26T09:53:38;5.30;;;1.40;;
59336;SDS011;45115;52.002;4.686;2022-07-26T09:56:06;4.90;;;1.30;;
59336;SDS011;45115;52.002;4.686;2022-07-26T09:58:33;5.78;;;1.80;;
59336;SDS011;45115;52.002;4.686;2022-07-26T10:01:01;2.17;;;1.10;;
59336;SDS011;45115;52.002;4.686;2022-07-26T10:03:28;4.70;;;1.60;;
59336;SDS011;45115;52.002;4.686;2022-07-26T10:05:55;4.68;;;1.58;;
59336;SDS011;45115;52.002;4.686;2022-07-26T10:08:23;3.08;;;1.02;;
59336;SDS011;45115;52.002;4.686;2022-07-26T10:10:51;2.00;;;1.10;;
59336;SDS011;45115;52.002;4.686;2022-07-26T10:13:21;2.75;;;1.02;;
59336;SDS011;45115;52.002;4.686;2022-07-26T10:15:49;3.88;;;1.58;;
59336;SDS011;45115;52.002;4.686;2022-07-26T10:21:18;4.88;;;1.50;;
59336;SDS011;45115;52.002;4.686;2022-07-26T10:23:48;5.97;;;1.38;;
59336;SDS011;45115;52.002;4.686;2022-07-26T10:26:37;3.50;;;1.27;;
59336;SDS011;45115;52.002;4.686;2022-07-26T10:29:20;5.07;;;1.40;;
59336;SDS011;45115;52.002;4.686;2022-07-26T10:34:41;4.30;;;1.15;;
59336;SDS011;45115;52.002;4.686;2022-07-26T10:37:09;3.03;;;1.45;;
59336;SDS011;45115;52.002;4.686;2022-07-26T10:39:46;12.48;;;2.38;;
59336;SDS011;45115;52.002;4.686;2022-07-26T10:42:13;4.60;;;1.88;;
59336;SDS011;45115;52.002;4.686;2022-07-26T10:44:41;5.03;;;1.35;;
59336;SDS011;45115;52.002;4.686;2022-07-26T10:47:13;5.03;;;1.40;;
59336;SDS011;45115;52.002;4.686;2022-07-26T10:49:44;2.17;;;0.95;;
59336;SDS011;45115;52.002;4.686;2022-07-26T10:52:20;5.22;;;1.35;;
59336;SDS011;45115;52.002;4.686;2022-07-26T10:57:44;2.28;;;1.20;;
59336;SDS011;45115;52.002;4.686;2022-07-26T11:00:13;3.95;;;1.25;;
59336;SDS011;45115;52.002;4.686;2022-07-26T11:02:51;6.18;;;1.90;;
59336;SDS011;45115;52.002;4.686;2022-07-26T11:05:19;5.35;;;1.40;;
59336;SDS011;45115;52.002;4.686;2022-07-26T11:07:54;5.53;;;1.67;;
59336;SDS011;45115;52.002;4.686;2022-07-26T11:10:25;6.57;;;1.40;;
59336;SDS011;45115;52.002;4.686;2022-07-26T11:13:03;3.47;;;0.93;;
59336;SDS011;45115;52.002;4.686;2022-07-26T11:15:38;8.85;;;2.53;;
59336;SDS011;45115;52.002;4.686;2022-07-26T11:18:09;2.50;;;1.15;;
59336;SDS011;45115;52.002;4.686;2022-07-26T11:20:38;1.67;;;1.13;;
59336;SDS011;45115;52.002;4.686;2022-07-26T11:23:17;3.20;;;0.98;;
59336;SDS011;45115;52.002;4.686;2022-07-26T11:26:03;3.40;;;1.73;;
59336;SDS011;45115;52.002;4.686;2022-07-26T11:28:41;5.10;;;1.75;;
59336;SDS011;45115;52.002;4.686;2022-07-26T11:31:12;2.83;;;1.30;;
59336;SDS011;45115;52.002;4.686;2022-07-26T11:33:39;1.85;;;1.30;;
59336;SDS011;45115;52.002;4.686;2022-07-26T11:36:07;5.03;;;1.20;;
59336;SDS011;45115;52.002;4.686;2022-07-26T11:38:48;3.35;;;1.50;;
59336;SDS011;45115;52.002;4.686;2022-07-26T11:41:21;5.72;;;2.38;;
59336;SDS011;45115;52.002;4.686;2022-07-26T11:43:49;5.50;;;2.13;;
59336;SDS011;45115;52.002;4.686;2022-07-26T11:46:17;5.43;;;2.03;;
59336;SDS011;45115;52.002;4.686;2022-07-26T11:48:45;6.50;;;2.10;;
59336;SDS011;45115;52.002;4.686;2022-07-26T11:51:13;4.68;;;1.90;;
59336;SDS011;45115;52.002;4.686;2022-07-26T11:53:40;5.40;;;2.03;;
59336;SDS011;45115;52.002;4.686;2022-07-26T11:56:08;5.97;;;1.90;;
59336;SDS011;45115;52.002;4.686;2022-07-26T11:58:41;8.35;;;1.83;;
59336;SDS011;45115;52.002;4.686;2022-07-26T12:01:09;3.53;;;1.63;;
59336;SDS011;45115;52.002;4.686;2022-07-26T12:03:37;7.50;;;1.88;;
59336;SDS011;45115;52.002;4.686;2022-07-26T12:06:05;7.15;;;1.80;;
59336;SDS011;45115;52.002;4.686;2022-07-26T12:08:37;5.93;;;1.55;;
59336;SDS011;45115;52.002;4.686;2022-07-26T12:11:05;6.50;;;2.00;;
59336;SDS011;45115;52.002;4.686;2022-07-26T12:13:32;5.82;;;2.08;;
59336;SDS011;45115;52.002;4.686;2022-07-26T12:19:00;4.32;;;1.67;;
59336;SDS011;45115;52.002;4.686;2022-07-26T12:21:36;6.85;;;1.95;;
59336;SDS011;45115;52.002;4.686;2022-07-26T12:24:04;6.43;;;1.38;;
59336;SDS011;45115;52.002;4.686;2022-07-26T12:26:31;5.82;;;1.90;;
59336;SDS011;45115;52.002;4.686;2022-07-26T12:29:00;7.07;;;1.77;;
59336;SDS011;45115;52.002;4.686;2022-07-26T12:31:41;10.82;;;1.90;;
59336;SDS011;45115;52.002;4.686;2022-07-26T12:34:08;5.47;;;2.33;;
59336;SDS011;45115;52.002;4.686;2022-07-26T12:36:34;6.53;;;2.10;;
59336;SDS011;45115;52.002;4.686;2022-07-26T12:39:01;4.53;;;1.60;;
59336;SDS011;45115;52.002;4.686;2022-07-26T12:41:29;5.85;;;2.10;;
59336;SDS011;45115;52.002;4.686;2022-07-26T12:43:57;4.78;;;1.92;;
59336;SDS011;45115;52.002;4.686;2022-07-26T12:46:25;4.32;;;1.90;;
59336;SDS011;45115;52.002;4.686;2022-07-26T12:48:52;6.35;;;2.08;;
59336;SDS011;45115;52.002;4.686;2022-07-26T12:51:18;5.22;;;1.95;;
59336;SDS011;45115;52.002;4.686;2022-07-26T12:53:45;5.15;;;1.65;;
59336;SDS011;45115;52.002;4.686;2022-07-26T12:56:12;3.03;;;1.88;;
59336;SDS011;45115;52.002;4.686;2022-07-26T12:58:38;5.63;;;1.80;;
59336;SDS011;45115;52.002;4.686;2022-07-26T13:01:05;6.82;;;2.00;;
59336;SDS011;45115;52.002;4.686;2022-07-26T13:03:33;6.43;;;2.03;;
59336;SDS011;45115;52.002;4.686;2022-07-26T13:06:00;5.60;;;1.63;;
59336;SDS011;45115;52.002;4.686;2022-07-26T13:08:27;6.95;;;1.90;;
59336;SDS011;45115;52.002;4.686;2022-07-26T13:10:54;4.88;;;1.45;;
59336;SDS011;45115;52.002;4.686;2022-07-26T13:13:20;6.20;;;1.77;;
59336;SDS011;45115;52.002;4.686;2022-07-26T13:15:47;9.10;;;2.10;;
59336;SDS011;45115;52.002;4.686;2022-07-26T13:18:14;5.18;;;1.70;;
59336;SDS011;45115;52.002;4.686;2022-07-26T13:20:42;6.88;;;1.65;;
59336;SDS011;45115;52.002;4.686;2022-07-26T13:23:08;6.38;;;1.63;;
59336;SDS011;45115;52.002;4.686;2022-07-26T13:25:35;3.35;;;1.83;;
59336;SDS011;45115;52.002;4.686;2022-07-26T13:28:02;5.95;;;1.60;;
59336;SDS011;45115;52.002;4.686;2022-07-26T13:30:29;5.72;;;1.73;;
59336;SDS011;45115;52.002;4.686;2022-07-26T13:32:55;3.83;;;1.70;;
59336;SDS011;45115;52.002;4.686;2022-07-26T13:35:22;4.93;;;1.83;;
59336;SDS011;45115;52.002;4.686;2022-07-26T13:37:50;5.30;;;1.80;;
59336;SDS011;45115;52.002;4.686;2022-07-26T13:40:17;2.38;;;1.45;;
59336;SDS011;45115;52.002;4.686;2022-07-26T13:42:43;4.95;;;1.70;;
59336;SDS011;45115;52.002;4.686;2022-07-26T13:45:10;5.85;;;1.77;;
59336;SDS011;45115;52.002;4.686;2022-07-26T13:47:37;4.65;;;1.95;;
59336;SDS011;45115;52.002;4.686;2022-07-26T13:50:04;5.35;;;1.63;;
59336;SDS011;45115;52.002;4.686;2022-07-26T13:52:31;4.70;;;1.73;;
59336;SDS011;45115;52.002;4.686;2022-07-26T13:54:59;3.97;;;1.50;;
59336;SDS011;45115;52.002;4.686;2022-07-26T13:57:26;5.18;;;1.50;;
59336;SDS011;45115;52.002;4.686;2022-07-26T13:59:53;4.85;;;1.77;;
59336;SDS011;45115;52.002;4.686;2022-07-26T14:02:19;4.03;;;1.40;;
59336;SDS011;45115;52.002;4.686;2022-07-26T14:04:46;3.85;;;1.60;;
59336;SDS011;45115;52.002;4.686;2022-07-26T14:07:12;3.28;;;1.60;;
59336;SDS011;45115;52.002;4.686;2022-07-26T14:09:39;2.90;;;1.58;;
59336;SDS011;45115;52.002;4.686;2022-07-26T14:12:07;1.98;;;1.17;;
59336;SDS011;45115;52.002;4.686;2022-07-26T14:14:37;3.72;;;1.50;;
59336;SDS011;45115;52.002;4.686;2022-07-26T14:17:04;3.65;;;1.52;;
59336;SDS011;45115;52.002;4.686;2022-07-26T14:19:30;5.18;;;1.45;;
59336;SDS011;45115;52.002;4.686;2022-07-26T14:21:57;4.97;;;1.50;;
59336;SDS011;45115;52.002;4.686;2022-07-26T14:24:24;5.10;;;1.55;;
59336;SDS011;45115;52.002;4.686;2022-07-26T14:26:50;4.88;;;1.70;;
59336;SDS011;45115;52.002;4.686;2022-07-26T14:29:18;2.83;;;1.63;;
59336;SDS011;45115;52.002;4.686;2022-07-26T14:31:45;2.88;;;1.38;;
59336;SDS011;45115;52.002;4.686;2022-07-26T14:34:11;4.95;;;1.73;;
59336;SDS011;45115;52.002;4.686;2022-07-26T14:36:38;5.70;;;1.80;;
59336;SDS011;45115;52.002;4.686;2022-07-26T14:39:04;6.30;;;1.77;;
59336;SDS011;45115;52.002;4.686;2022-07-26T14:41:31;5.53;;;1.67;;
59336;SDS011;45115;52.002;4.686;2022-07-26T14:43:58;3.95;;;1.80;;
59336;SDS011;45115;52.002;4.686;2022-07-26T14:46:27;4.88;;;1.80;;
59336;SDS011;45115;52.002;4.686;2022-07-26T14:48:53;6.00;;;2.00;;
59336;SDS011;45115;52.002;4.686;2022-07-26T14:51:20;5.38;;;1.80;;
59336;SDS011;45115;52.002;4.686;2022-07-26T14:53:47;5.88;;;1.70;;
59336;SDS011;45115;52.002;4.686;2022-07-26T14:56:13;3.25;;;1.48;;
59336;SDS011;45115;52.002;4.686;2022-07-26T14:58:40;3.95;;;2.10;;
59336;SDS011;45115;52.002;4.686;2022-07-26T15:01:07;6.03;;;1.70;;
59336;SDS011;45115;52.002;4.686;2022-07-26T15:03:35;10.75;;;2.15;;
59336;SDS011;45115;52.002;4.686;2022-07-26T15:06:01;3.83;;;1.50;;